sensor_id;sensor_type;location;lat;lon;timestamp;temperature;humidity
57753;DHT22;43583;53.132;6.574;2023-03-14T00:00:58;8.80;99.90
57753;DHT22;43583;53.132;6.574;2023-03-14T00:03:23;8.90;99.90
57753;DHT22;43583;53.132;6.574;2023-03-14T00:05:49;8.90;99.90
57753;DHT22;43583;53.132;6.574;2023-03-14T00:08:14;9.00;99.90
57753;DHT22;43583;53.132;6.574;2023-03-14T00:10:40;9.00;99.90
57753;DHT22;43583;53.132;6.574;2023-03-14T00:13:06;9.10;99.90
57753;DHT22;43583;53.132;6.574;2023-03-14T00:15:33;9.20;99.90
57753;DHT22;43583;53.132;6.574;2023-03-14T00:17:59;9.20;99.90
57753;DHT22;43583;53.132;6.574;2023-03-14T00:20:25;9.30;99.90
57753;DHT22;43583;53.132;6.574;2023-03-14T00:22:51;9.30;99.90
57753;DHT22;43583;53.132;6.574;2023-03-14T00:25:17;9.40;99.90
57753;DHT22;43583;53.132;6.574;2023-03-14T00:27:42;9.50;99.90
57753;DHT22;43583;53.132;6.574;2023-03-14T00:30:08;9.60;99.90
57753;DHT22;43583;53.132;6.574;2023-03-14T00:32:34;9.70;99.90
57753;DHT22;43583;53.132;6.574;2023-03-14T00:35:00;9.70;99.90
57753;DHT22;43583;53.132;6.574;2023-03-14T00:37:26;9.70;99.90
57753;DHT22;43583;53.132;6.574;2023-03-14T00:39:52;9.60;99.90
57753;DHT22;43583;53.132;6.574;2023-03-14T00:42:17;9.60;99.90
57753;DHT22;43583;53.132;6.574;2023-03-14T00:44:43;9.60;99.90
57753;DHT22;43583;53.132;6.574;2023-03-14T00:47:09;9.60;99.90
57753;DHT22;43583;53.132;6.574;2023-03-14T00:49:34;9.60;99.90
57753;DHT22;43583;53.132;6.574;2023-03-14T00:52:00;9.60;99.90
57753;DHT22;43583;53.132;6.574;2023-03-14T00:54:26;9.50;99.90
57753;DHT22;43583;53.132;6.574;2023-03-14T00:56:51;9.60;99.90
57753;DHT22;43583;53.132;6.574;2023-03-14T00:59:17;9.70;99.90
57753;DHT22;43583;53.132;6.574;2023-03-14T01:01:43;9.80;99.90
57753;DHT22;43583;53.132;6.574;2023-03-14T01:04:08;9.90;99.90
57753;DHT22;43583;53.132;6.574;2023-03-14T01:06:34;9.90;99.90
57753;DHT22;43583;53.132;6.574;2023-03-14T01:09:00;10.00;99.90
57753;DHT22;43583;53.132;6.574;2023-03-14T01:11:28;10.00;99.90
57753;DHT22;43583;53.132;6.574;2023-03-14T01:13:55;10.00;99.90
57753;DHT22;43583;53.132;6.574;2023-03-14T01:16:23;10.00;99.90
57753;DHT22;43583;53.132;6.574;2023-03-14T01:18:48;10.00;99.90
57753;DHT22;43583;53.132;6.574;2023-03-14T01:21:17;9.90;99.90
57753;DHT22;43583;53.132;6.574;2023-03-14T01:23:43;9.90;99.90
57753;DHT22;43583;53.132;6.574;2023-03-14T01:26:13;9.90;99.90
57753;DHT22;43583;53.132;6.574;2023-03-14T01:28:39;9.90;99.90
57753;DHT22;43583;53.132;6.574;2023-03-14T01:31:07;9.90;99.90
57753;DHT22;43583;53.132;6.574;2023-03-14T01:33:33;10.00;99.90
57753;DHT22;43583;53.132;6.574;2023-03-14T01:35:58;10.00;99.90
57753;DHT22;43583;53.132;6.574;2023-03-14T01:38:24;10.00;99.90
57753;DHT22;43583;53.132;6.574;2023-03-14T01:40:50;10.00;99.90
57753;DHT22;43583;53.132;6.574;2023-03-14T01:43:18;10.00;99.90
57753;DHT22;43583;53.132;6.574;2023-03-14T01:48:41;10.10;99.90
57753;DHT22;43583;53.132;6.574;2023-03-14T01:51:11;10.10;99.90
57753;DHT22;43583;53.132;6.574;2023-03-14T01:53:39;10.20;99.90
57753;DHT22;43583;53.132;6.574;2023-03-14T01:56:05;10.20;99.90
57753;DHT22;43583;53.132;6.574;2023-03-14T01:58:32;10.20;99.90
57753;DHT22;43583;53.132;6.574;2023-03-14T02:01:01;10.20;99.90
57753;DHT22;43583;53.132;6.574;2023-03-14T02:03:29;10.20;99.90
57753;DHT22;43583;53.132;6.574;2023-03-14T02:05:57;10.20;99.90
57753;DHT22;43583;53.132;6.574;2023-03-14T02:08:27;10.20;99.90
57753;DHT22;43583;53.132;6.574;2023-03-14T02:10:53;10.20;99.90
57753;DHT22;43583;53.132;6.574;2023-03-14T02:13:20;10.20;99.90
57753;DHT22;43583;53.132;6.574;2023-03-14T02:15:47;10.20;99.90
57753;DHT22;43583;53.132;6.574;2023-03-14T02:18:13;10.20;99.90
57753;DHT22;43583;53.132;6.574;2023-03-14T02:20:53;10.10;99.90
57753;DHT22;43583;53.132;6.574;2023-03-14T02:23:32;10.10;99.90
57753;DHT22;43583;53.132;6.574;2023-03-14T02:26:36;10.10;99.90
57753;DHT22;43583;53.132;6.574;2023-03-14T02:28:53;10.00;99.90
57753;DHT22;43583;53.132;6.574;2023-03-14T02:31:20;10.00;99.90
57753;DHT22;43583;53.132;6.574;2023-03-14T02:33:47;9.90;99.90
57753;DHT22;43583;53.132;6.574;2023-03-14T02:36:13;9.90;99.90
57753;DHT22;43583;53.132;6.574;2023-03-14T02:41:23;9.90;99.90
57753;DHT22;43583;53.132;6.574;2023-03-14T02:43:49;9.80;99.90
57753;DHT22;43583;53.132;6.574;2023-03-14T02:46:20;9.90;99.90
57753;DHT22;43583;53.132;6.574;2023-03-14T02:48:53;9.90;99.90
57753;DHT22;43583;53.132;6.574;2023-03-14T02:51:22;9.90;99.90
57753;DHT22;43583;53.132;6.574;2023-03-14T02:53:48;9.90;99.90
57753;DHT22;43583;53.132;6.574;2023-03-14T02:56:14;9.90;99.90
57753;DHT22;43583;53.132;6.574;2023-03-14T02:58:40;9.90;99.90
57753;DHT22;43583;53.132;6.574;2023-03-14T03:01:05;9.90;99.90
57753;DHT22;43583;53.132;6.574;2023-03-14T03:03:31;9.80;99.90
57753;DHT22;43583;53.132;6.574;2023-03-14T03:05:57;9.80;99.90
57753;DHT22;43583;53.132;6.574;2023-03-14T03:08:25;9.90;99.90
57753;DHT22;43583;53.132;6.574;2023-03-14T03:10:52;9.80;99.90
57753;DHT22;43583;53.132;6.574;2023-03-14T03:13:17;9.80;99.90
57753;DHT22;43583;53.132;6.574;2023-03-14T03:15:43;9.70;99.90
57753;DHT22;43583;53.132;6.574;2023-03-14T03:18:09;9.70;99.90
57753;DHT22;43583;53.132;6.574;2023-03-14T03:20:35;9.70;99.90
57753;DHT22;43583;53.132;6.574;2023-03-14T03:23:01;9.60;99.90
57753;DHT22;43583;53.132;6.574;2023-03-14T03:25:27;9.60;99.90
57753;DHT22;43583;53.132;6.574;2023-03-14T03:27:53;9.50;99.90
57753;DHT22;43583;53.132;6.574;2023-03-14T03:30:19;9.40;99.90
57753;DHT22;43583;53.132;6.574;2023-03-14T03:32:45;9.40;99.90
57753;DHT22;43583;53.132;6.574;2023-03-14T03:35:11;9.40;99.90
57753;DHT22;43583;53.132;6.574;2023-03-14T03:37:36;9.30;99.90
57753;DHT22;43583;53.132;6.574;2023-03-14T03:40:02;9.40;99.90
57753;DHT22;43583;53.132;6.574;2023-03-14T03:42:31;9.40;99.90
57753;DHT22;43583;53.132;6.574;2023-03-14T03:44:57;9.30;99.90
57753;DHT22;43583;53.132;6.574;2023-03-14T03:47:22;9.30;99.90
57753;DHT22;43583;53.132;6.574;2023-03-14T03:49:48;9.30;99.90
57753;DHT22;43583;53.132;6.574;2023-03-14T03:52:13;9.30;99.90
57753;DHT22;43583;53.132;6.574;2023-03-14T03:54:39;9.30;99.90
57753;DHT22;43583;53.132;6.574;2023-03-14T03:57:04;9.30;99.90
57753;DHT22;43583;53.132;6.574;2023-03-14T03:59:30;9.20;99.90
57753;DHT22;43583;53.132;6.574;2023-03-14T04:01:55;9.30;99.90
57753;DHT22;43583;53.132;6.574;2023-03-14T04:04:21;9.20;99.90
57753;DHT22;43583;53.132;6.574;2023-03-14T04:06:46;9.20;99.90
57753;DHT22;43583;53.132;6.574;2023-03-14T04:09:12;9.20;99.90
57753;DHT22;43583;53.132;6.574;2023-03-14T04:11:38;9.20;99.90
57753;DHT22;43583;53.132;6.574;2023-03-14T04:14:04;9.20;99.90
57753;DHT22;43583;53.132;6.574;2023-03-14T04:16:30;9.20;99.90
57753;DHT22;43583;53.132;6.574;2023-03-14T04:18:59;9.20;99.90
57753;DHT22;43583;53.132;6.574;2023-03-14T04:21:25;9.20;99.90
57753;DHT22;43583;53.132;6.574;2023-03-14T04:23:51;9.20;99.90
57753;DHT22;43583;53.132;6.574;2023-03-14T04:26:17;9.20;99.90
57753;DHT22;43583;53.132;6.574;2023-03-14T04:28:42;9.20;99.90
57753;DHT22;43583;53.132;6.574;2023-03-14T04:31:10;9.20;99.90
57753;DHT22;43583;53.132;6.574;2023-03-14T04:33:35;9.20;99.90
57753;DHT22;43583;53.132;6.574;2023-03-14T04:36:03;9.20;99.90
57753;DHT22;43583;53.132;6.574;2023-03-14T04:38:28;9.10;99.90
57753;DHT22;43583;53.132;6.574;2023-03-14T04:40:54;9.10;99.90
57753;DHT22;43583;53.132;6.574;2023-03-14T04:43:20;9.10;99.90
57753;DHT22;43583;53.132;6.574;2023-03-14T04:45:45;9.10;99.90
57753;DHT22;43583;53.132;6.574;2023-03-14T04:48:11;9.10;99.90
57753;DHT22;43583;53.132;6.574;2023-03-14T04:50:38;9.10;99.90
57753;DHT22;43583;53.132;6.574;2023-03-14T04:53:03;9.10;99.90
57753;DHT22;43583;53.132;6.574;2023-03-14T04:55:29;9.10;99.90
57753;DHT22;43583;53.132;6.574;2023-03-14T04:57:54;9.10;99.90
57753;DHT22;43583;53.132;6.574;2023-03-14T05:00:20;9.10;99.90
57753;DHT22;43583;53.132;6.574;2023-03-14T05:02:45;9.10;99.90
57753;DHT22;43583;53.132;6.574;2023-03-14T05:05:11;9.10;99.90
57753;DHT22;43583;53.132;6.574;2023-03-14T05:07:37;9.10;99.90
57753;DHT22;43583;53.132;6.574;2023-03-14T05:10:03;9.10;99.90
57753;DHT22;43583;53.132;6.574;2023-03-14T05:12:28;9.10;99.90
57753;DHT22;43583;53.132;6.574;2023-03-14T05:14:54;9.10;99.90
57753;DHT22;43583;53.132;6.574;2023-03-14T05:17:19;9.10;99.90
57753;DHT22;43583;53.132;6.574;2023-03-14T05:19:45;9.10;99.90
57753;DHT22;43583;53.132;6.574;2023-03-14T05:22:11;9.10;99.90
57753;DHT22;43583;53.132;6.574;2023-03-14T05:24:36;9.10;99.90
57753;DHT22;43583;53.132;6.574;2023-03-14T05:27:03;9.00;99.90
57753;DHT22;43583;53.132;6.574;2023-03-14T05:29:28;9.00;99.90
57753;DHT22;43583;53.132;6.574;2023-03-14T05:31:54;9.00;99.90
57753;DHT22;43583;53.132;6.574;2023-03-14T05:34:20;9.00;99.90
57753;DHT22;43583;53.132;6.574;2023-03-14T05:36:45;9.10;99.90
57753;DHT22;43583;53.132;6.574;2023-03-14T05:39:11;9.00;99.90
57753;DHT22;43583;53.132;6.574;2023-03-14T05:41:37;9.00;99.90
57753;DHT22;43583;53.132;6.574;2023-03-14T05:44:03;9.00;99.90
57753;DHT22;43583;53.132;6.574;2023-03-14T05:46:28;9.00;99.90
57753;DHT22;43583;53.132;6.574;2023-03-14T05:48:56;9.00;99.90
57753;DHT22;43583;53.132;6.574;2023-03-14T05:51:22;9.10;99.90
57753;DHT22;43583;53.132;6.574;2023-03-14T05:53:47;9.00;99.90
57753;DHT22;43583;53.132;6.574;2023-03-14T05:56:13;9.10;99.90
57753;DHT22;43583;53.132;6.574;2023-03-14T05:58:38;9.00;99.90
57753;DHT22;43583;53.132;6.574;2023-03-14T06:01:05;9.00;99.90
57753;DHT22;43583;53.132;6.574;2023-03-14T06:03:31;9.00;99.90
57753;DHT22;43583;53.132;6.574;2023-03-14T06:05:57;9.00;99.90
57753;DHT22;43583;53.132;6.574;2023-03-14T06:08:23;9.00;99.90
57753;DHT22;43583;53.132;6.574;2023-03-14T06:10:48;9.00;99.90
57753;DHT22;43583;53.132;6.574;2023-03-14T06:13:14;9.00;99.90
57753;DHT22;43583;53.132;6.574;2023-03-14T06:15:41;9.00;99.90
57753;DHT22;43583;53.132;6.574;2023-03-14T06:18:06;9.10;99.90
57753;DHT22;43583;53.132;6.574;2023-03-14T06:20:32;9.00;99.90
57753;DHT22;43583;53.132;6.574;2023-03-14T06:22:59;9.00;99.90
57753;DHT22;43583;53.132;6.574;2023-03-14T06:25:24;9.00;99.90
57753;DHT22;43583;53.132;6.574;2023-03-14T06:27:50;9.00;99.90
57753;DHT22;43583;53.132;6.574;2023-03-14T06:30:16;9.00;99.90
57753;DHT22;43583;53.132;6.574;2023-03-14T06:32:41;9.00;99.90
57753;DHT22;43583;53.132;6.574;2023-03-14T06:35:07;9.10;99.90
57753;DHT22;43583;53.132;6.574;2023-03-14T06:37:34;9.00;99.90
57753;DHT22;43583;53.132;6.574;2023-03-14T06:39:59;9.00;99.90
57753;DHT22;43583;53.132;6.574;2023-03-14T06:42:25;9.00;99.90
57753;DHT22;43583;53.132;6.574;2023-03-14T06:44:51;8.70;99.90
57753;DHT22;43583;53.132;6.574;2023-03-14T06:47:16;8.40;99.90
57753;DHT22;43583;53.132;6.574;2023-03-14T06:49:42;8.00;99.90
57753;DHT22;43583;53.132;6.574;2023-03-14T06:52:07;7.80;99.90
57753;DHT22;43583;53.132;6.574;2023-03-14T06:54:33;7.60;99.90
57753;DHT22;43583;53.132;6.574;2023-03-14T06:56:58;7.40;99.90
57753;DHT22;43583;53.132;6.574;2023-03-14T06:59:24;7.20;99.90
57753;DHT22;43583;53.132;6.574;2023-03-14T07:01:50;7.10;99.90
57753;DHT22;43583;53.132;6.574;2023-03-14T07:04:16;6.90;99.90
57753;DHT22;43583;53.132;6.574;2023-03-14T07:06:42;6.80;99.90
57753;DHT22;43583;53.132;6.574;2023-03-14T07:09:12;6.50;99.90
57753;DHT22;43583;53.132;6.574;2023-03-14T07:11:38;6.30;99.90
57753;DHT22;43583;53.132;6.574;2023-03-14T07:14:04;6.20;99.90
57753;DHT22;43583;53.132;6.574;2023-03-14T07:16:29;6.00;99.90
57753;DHT22;43583;53.132;6.574;2023-03-14T07:18:58;5.90;99.90
57753;DHT22;43583;53.132;6.574;2023-03-14T07:21:24;5.80;99.90
57753;DHT22;43583;53.132;6.574;2023-03-14T07:23:49;5.70;99.90
57753;DHT22;43583;53.132;6.574;2023-03-14T07:26:15;5.60;99.90
57753;DHT22;43583;53.132;6.574;2023-03-14T07:28:41;5.40;99.90
57753;DHT22;43583;53.132;6.574;2023-03-14T07:31:07;5.30;99.90
57753;DHT22;43583;53.132;6.574;2023-03-14T07:33:33;5.20;99.90
57753;DHT22;43583;53.132;6.574;2023-03-14T07:35:59;5.20;99.90
57753;DHT22;43583;53.132;6.574;2023-03-14T07:38:24;5.10;99.90
57753;DHT22;43583;53.132;6.574;2023-03-14T07:40:50;5.00;99.90
57753;DHT22;43583;53.132;6.574;2023-03-14T07:43:16;5.00;99.90
57753;DHT22;43583;53.132;6.574;2023-03-14T07:45:44;4.90;99.90
57753;DHT22;43583;53.132;6.574;2023-03-14T07:48:10;4.80;99.90
57753;DHT22;43583;53.132;6.574;2023-03-14T07:50:36;4.80;99.90
57753;DHT22;43583;53.132;6.574;2023-03-14T07:53:01;4.80;99.90
57753;DHT22;43583;53.132;6.574;2023-03-14T07:55:27;4.80;99.90
57753;DHT22;43583;53.132;6.574;2023-03-14T07:57:52;4.80;99.90
57753;DHT22;43583;53.132;6.574;2023-03-14T08:00:18;4.70;99.90
57753;DHT22;43583;53.132;6.574;2023-03-14T08:02:44;4.80;99.90
57753;DHT22;43583;53.132;6.574;2023-03-14T08:05:10;4.80;99.90
57753;DHT22;43583;53.132;6.574;2023-03-14T08:07:36;4.80;99.90
57753;DHT22;43583;53.132;6.574;2023-03-14T08:10:02;4.80;99.90
57753;DHT22;43583;53.132;6.574;2023-03-14T08:12:27;4.90;99.90
57753;DHT22;43583;53.132;6.574;2023-03-14T08:14:53;4.90;99.90
57753;DHT22;43583;53.132;6.574;2023-03-14T08:17:19;5.00;99.90
57753;DHT22;43583;53.132;6.574;2023-03-14T08:19:44;5.10;99.90
57753;DHT22;43583;53.132;6.574;2023-03-14T08:22:10;5.20;99.90
57753;DHT22;43583;53.132;6.574;2023-03-14T08:24:35;5.30;99.90
57753;DHT22;43583;53.132;6.574;2023-03-14T08:27:01;5.40;99.90
57753;DHT22;43583;53.132;6.574;2023-03-14T08:29:26;5.60;99.90
57753;DHT22;43583;53.132;6.574;2023-03-14T08:31:52;5.60;99.90
57753;DHT22;43583;53.132;6.574;2023-03-14T08:34:18;5.70;99.90
57753;DHT22;43583;53.132;6.574;2023-03-14T08:36:44;5.80;99.90
57753;DHT22;43583;53.132;6.574;2023-03-14T08:39:10;5.90;99.90
57753;DHT22;43583;53.132;6.574;2023-03-14T08:41:35;5.90;99.90
57753;DHT22;43583;53.132;6.574;2023-03-14T08:44:06;6.00;99.90
57753;DHT22;43583;53.132;6.574;2023-03-14T08:46:32;6.00;99.90
57753;DHT22;43583;53.132;6.574;2023-03-14T08:48:58;6.00;99.90
57753;DHT22;43583;53.132;6.574;2023-03-14T08:51:23;6.10;99.90
57753;DHT22;43583;53.132;6.574;2023-03-14T08:53:49;6.20;99.90
57753;DHT22;43583;53.132;6.574;2023-03-14T08:56:14;6.20;99.90
57753;DHT22;43583;53.132;6.574;2023-03-14T08:58:40;6.30;99.90
57753;DHT22;43583;53.132;6.574;2023-03-14T09:01:08;6.30;99.90
57753;DHT22;43583;53.132;6.574;2023-03-14T09:03:34;6.40;99.90
57753;DHT22;43583;53.132;6.574;2023-03-14T09:06:04;6.60;99.90
57753;DHT22;43583;53.132;6.574;2023-03-14T09:08:30;6.80;99.90
57753;DHT22;43583;53.132;6.574;2023-03-14T09:10:56;6.90;99.90
57753;DHT22;43583;53.132;6.574;2023-03-14T09:13:21;7.10;99.90
57753;DHT22;43583;53.132;6.574;2023-03-14T09:15:54;7.30;99.90
57753;DHT22;43583;53.132;6.574;2023-03-14T09:18:20;7.30;99.90
57753;DHT22;43583;53.132;6.574;2023-03-14T09:20:45;7.50;99.90
57753;DHT22;43583;53.132;6.574;2023-03-14T09:23:11;7.70;99.90
57753;DHT22;43583;53.132;6.574;2023-03-14T09:25:37;8.10;99.90
57753;DHT22;43583;53.132;6.574;2023-03-14T09:28:02;8.40;99.90
57753;DHT22;43583;53.132;6.574;2023-03-14T09:30:28;8.40;99.90
57753;DHT22;43583;53.132;6.574;2023-03-14T09:32:54;8.40;99.90
57753;DHT22;43583;53.132;6.574;2023-03-14T09:35:19;8.00;99.90
57753;DHT22;43583;53.132;6.574;2023-03-14T09:37:45;7.80;99.90
57753;DHT22;43583;53.132;6.574;2023-03-14T09:40:13;7.60;99.90
57753;DHT22;43583;53.132;6.574;2023-03-14T09:42:40;7.50;99.90
57753;DHT22;43583;53.132;6.574;2023-03-14T09:45:12;7.40;99.90
57753;DHT22;43583;53.132;6.574;2023-03-14T09:47:40;7.40;99.90
57753;DHT22;43583;53.132;6.574;2023-03-14T09:50:13;7.30;99.90
57753;DHT22;43583;53.132;6.574;2023-03-14T09:52:42;7.20;99.90
57753;DHT22;43583;53.132;6.574;2023-03-14T09:55:20;7.30;99.90
57753;DHT22;43583;53.132;6.574;2023-03-14T09:57:49;7.40;99.90
57753;DHT22;43583;53.132;6.574;2023-03-14T10:00:19;7.50;99.90
57753;DHT22;43583;53.132;6.574;2023-03-14T10:02:51;7.40;99.90
57753;DHT22;43583;53.132;6.574;2023-03-14T10:05:20;7.40;99.90
57753;DHT22;43583;53.132;6.574;2023-03-14T10:07:46;7.40;99.90
57753;DHT22;43583;53.132;6.574;2023-03-14T10:12:43;7.20;99.90
57753;DHT22;43583;53.132;6.574;2023-03-14T10:15:12;7.10;99.90
57753;DHT22;43583;53.132;6.574;2023-03-14T10:17:50;7.00;99.90
57753;DHT22;43583;53.132;6.574;2023-03-14T10:23:04;7.10;99.90
57753;DHT22;43583;53.132;6.574;2023-03-14T10:25:36;7.10;99.90
57753;DHT22;43583;53.132;6.574;2023-03-14T10:28:03;7.20;99.90
57753;DHT22;43583;53.132;6.574;2023-03-14T10:33:20;7.60;99.90
57753;DHT22;43583;53.132;6.574;2023-03-14T10:35:56;7.80;99.90
57753;DHT22;43583;53.132;6.574;2023-03-14T10:38:25;7.90;99.90
57753;DHT22;43583;53.132;6.574;2023-03-14T10:40:53;8.00;99.90
57753;DHT22;43583;53.132;6.574;2023-03-14T10:43:39;8.20;99.90
57753;DHT22;43583;53.132;6.574;2023-03-14T10:46:09;8.30;99.90
57753;DHT22;43583;53.132;6.574;2023-03-14T10:48:37;8.30;99.90
57753;DHT22;43583;53.132;6.574;2023-03-14T10:51:09;8.30;99.90
57753;DHT22;43583;53.132;6.574;2023-03-14T10:53:55;8.10;98.90
57753;DHT22;43583;53.132;6.574;2023-03-14T10:56:21;8.00;99.90
57753;DHT22;43583;53.132;6.574;2023-03-14T10:58:49;8.00;99.40
57753;DHT22;43583;53.132;6.574;2023-03-14T11:07:02;8.00;98.30
57753;DHT22;43583;53.132;6.574;2023-03-14T11:12:03;8.00;99.10
57753;DHT22;43583;53.132;6.574;2023-03-14T11:14:38;8.30;99.90
57753;DHT22;43583;53.132;6.574;2023-03-14T11:17:30;8.20;97.10
57753;DHT22;43583;53.132;6.574;2023-03-14T11:20:04;8.10;96.00
57753;DHT22;43583;53.132;6.574;2023-03-14T11:22:41;8.20;95.50
57753;DHT22;43583;53.132;6.574;2023-03-14T11:25:26;8.50;97.20
57753;DHT22;43583;53.132;6.574;2023-03-14T11:27:59;8.40;95.40
57753;DHT22;43583;53.132;6.574;2023-03-14T11:30:42;8.10;93.30
57753;DHT22;43583;53.132;6.574;2023-03-14T11:33:24;7.90;93.10
57753;DHT22;43583;53.132;6.574;2023-03-14T11:35:59;7.80;93.80
57753;DHT22;43583;53.132;6.574;2023-03-14T11:38:49;7.70;94.50
57753;DHT22;43583;53.132;6.574;2023-03-14T11:41:34;7.70;92.20
57753;DHT22;43583;53.132;6.574;2023-03-14T11:44:04;8.00;93.00
57753;DHT22;43583;53.132;6.574;2023-03-14T11:46:41;8.10;93.70
57753;DHT22;43583;53.132;6.574;2023-03-14T11:49:34;8.00;90.70
57753;DHT22;43583;53.132;6.574;2023-03-14T11:52:10;8.30;91.70
57753;DHT22;43583;53.132;6.574;2023-03-14T11:54:52;8.50;91.80
57753;DHT22;43583;53.132;6.574;2023-03-14T11:57:21;8.60;90.90
57753;DHT22;43583;53.132;6.574;2023-03-14T12:11:20;8.50;88.60
57753;DHT22;43583;53.132;6.574;2023-03-14T12:13:51;8.70;90.60
57753;DHT22;43583;53.132;6.574;2023-03-14T12:18:50;9.00;91.20
57753;DHT22;43583;53.132;6.574;2023-03-14T12:21:16;9.10;92.00
57753;DHT22;43583;53.132;6.574;2023-03-14T12:23:56;9.20;91.40
57753;DHT22;43583;53.132;6.574;2023-03-14T12:26:43;9.30;93.40
57753;DHT22;43583;53.132;6.574;2023-03-14T12:29:11;8.90;90.10
57753;DHT22;43583;53.132;6.574;2023-03-14T12:31:45;8.70;90.60
57753;DHT22;43583;53.132;6.574;2023-03-14T12:39:47;8.80;92.60
57753;DHT22;43583;53.132;6.574;2023-03-14T12:42:40;9.10;90.70
57753;DHT22;43583;53.132;6.574;2023-03-14T12:45:22;9.40;92.40
57753;DHT22;43583;53.132;6.574;2023-03-14T12:50:44;9.80;92.10
57753;DHT22;43583;53.132;6.574;2023-03-14T12:56:06;9.10;91.50
57753;DHT22;43583;53.132;6.574;2023-03-14T12:58:35;8.80;86.90
57753;DHT22;43583;53.132;6.574;2023-03-14T13:01:04;8.80;90.90
57753;DHT22;43583;53.132;6.574;2023-03-14T13:03:45;8.60;90.20
57753;DHT22;43583;53.132;6.574;2023-03-14T13:06:12;8.30;89.70
57753;DHT22;43583;53.132;6.574;2023-03-14T13:08:39;8.10;91.50
57753;DHT22;43583;53.132;6.574;2023-03-14T13:11:12;7.80;92.20
57753;DHT22;43583;53.132;6.574;2023-03-14T13:13:45;7.80;93.70
57753;DHT22;43583;53.132;6.574;2023-03-14T13:16:24;8.00;94.10
57753;DHT22;43583;53.132;6.574;2023-03-14T13:19:01;8.20;93.10
57753;DHT22;43583;53.132;6.574;2023-03-14T13:21:34;8.30;91.60
57753;DHT22;43583;53.132;6.574;2023-03-14T13:24:03;8.50;90.70
57753;DHT22;43583;53.132;6.574;2023-03-14T13:26:42;8.70;88.30
57753;DHT22;43583;53.132;6.574;2023-03-14T13:29:30;8.60;87.30
57753;DHT22;43583;53.132;6.574;2023-03-14T13:31:58;8.50;87.00
57753;DHT22;43583;53.132;6.574;2023-03-14T13:34:29;8.40;89.70
57753;DHT22;43583;53.132;6.574;2023-03-14T13:36:55;8.20;84.40
57753;DHT22;43583;53.132;6.574;2023-03-14T13:39:23;8.10;83.70
57753;DHT22;43583;53.132;6.574;2023-03-14T13:42:00;8.00;86.70
57753;DHT22;43583;53.132;6.574;2023-03-14T13:44:36;8.00;87.80
57753;DHT22;43583;53.132;6.574;2023-03-14T13:47:03;7.90;85.60
57753;DHT22;43583;53.132;6.574;2023-03-14T13:49:31;7.80;88.00
57753;DHT22;43583;53.132;6.574;2023-03-14T13:51:59;8.00;85.70
57753;DHT22;43583;53.132;6.574;2023-03-14T13:54:26;8.10;89.00
57753;DHT22;43583;53.132;6.574;2023-03-14T13:57:00;8.20;87.10
57753;DHT22;43583;53.132;6.574;2023-03-14T13:59:29;8.00;83.70
57753;DHT22;43583;53.132;6.574;2023-03-14T14:01:56;7.80;86.80
57753;DHT22;43583;53.132;6.574;2023-03-14T14:04:24;7.80;88.40
57753;DHT22;43583;53.132;6.574;2023-03-14T14:06:57;8.00;88.50
57753;DHT22;43583;53.132;6.574;2023-03-14T14:09:29;8.00;90.40
57753;DHT22;43583;53.132;6.574;2023-03-14T14:12:03;7.90;86.20
57753;DHT22;43583;53.132;6.574;2023-03-14T14:14:34;8.10;90.00
57753;DHT22;43583;53.132;6.574;2023-03-14T14:17:05;8.00;89.30
57753;DHT22;43583;53.132;6.574;2023-03-14T14:19:34;7.80;83.60
57753;DHT22;43583;53.132;6.574;2023-03-14T14:22:03;7.90;84.30
57753;DHT22;43583;53.132;6.574;2023-03-14T14:24:32;7.80;80.20
57753;DHT22;43583;53.132;6.574;2023-03-14T14:29:32;7.70;79.90
57753;DHT22;43583;53.132;6.574;2023-03-14T14:32:12;7.50;80.80
57753;DHT22;43583;53.132;6.574;2023-03-14T14:34:55;7.50;84.60
57753;DHT22;43583;53.132;6.574;2023-03-14T14:37:30;7.50;87.30
57753;DHT22;43583;53.132;6.574;2023-03-14T14:39:57;7.40;88.80
57753;DHT22;43583;53.132;6.574;2023-03-14T14:42:31;7.30;89.70
57753;DHT22;43583;53.132;6.574;2023-03-14T14:44:58;7.20;91.70
57753;DHT22;43583;53.132;6.574;2023-03-14T14:47:27;7.00;92.70
57753;DHT22;43583;53.132;6.574;2023-03-14T14:49:54;7.00;93.00
57753;DHT22;43583;53.132;6.574;2023-03-14T14:52:22;7.00;93.60
57753;DHT22;43583;53.132;6.574;2023-03-14T14:55:00;7.20;94.70
57753;DHT22;43583;53.132;6.574;2023-03-14T14:57:32;7.50;94.00
57753;DHT22;43583;53.132;6.574;2023-03-14T15:00:06;7.60;93.70
57753;DHT22;43583;53.132;6.574;2023-03-14T15:02:38;7.70;95.80
57753;DHT22;43583;53.132;6.574;2023-03-14T15:05:17;7.80;94.40
57753;DHT22;43583;53.132;6.574;2023-03-14T15:07:44;7.90;93.90
57753;DHT22;43583;53.132;6.574;2023-03-14T15:10:12;7.80;88.90
57753;DHT22;43583;53.132;6.574;2023-03-14T15:12:38;7.70;87.60
57753;DHT22;43583;53.132;6.574;2023-03-14T15:15:03;7.50;85.50
57753;DHT22;43583;53.132;6.574;2023-03-14T15:17:30;7.30;88.00
57753;DHT22;43583;53.132;6.574;2023-03-14T15:19:55;7.10;90.00
57753;DHT22;43583;53.132;6.574;2023-03-14T15:22:23;6.90;88.80
57753;DHT22;43583;53.132;6.574;2023-03-14T15:24:48;6.70;90.20
57753;DHT22;43583;53.132;6.574;2023-03-14T15:27:15;6.50;91.30
57753;DHT22;43583;53.132;6.574;2023-03-14T15:29:41;6.50;91.70
57753;DHT22;43583;53.132;6.574;2023-03-14T15:32:14;6.40;92.30
57753;DHT22;43583;53.132;6.574;2023-03-14T15:34:41;6.30;93.40
57753;DHT22;43583;53.132;6.574;2023-03-14T15:37:15;6.30;94.20
57753;DHT22;43583;53.132;6.574;2023-03-14T15:39:42;6.20;94.70
57753;DHT22;43583;53.132;6.574;2023-03-14T15:42:08;6.10;95.20
57753;DHT22;43583;53.132;6.574;2023-03-14T15:44:34;6.10;95.50
57753;DHT22;43583;53.132;6.574;2023-03-14T15:47:00;6.00;96.00
57753;DHT22;43583;53.132;6.574;2023-03-14T15:49:25;6.00;96.30
57753;DHT22;43583;53.132;6.574;2023-03-14T15:51:51;5.90;96.20
57753;DHT22;43583;53.132;6.574;2023-03-14T15:54:16;5.90;96.70
57753;DHT22;43583;53.132;6.574;2023-03-14T15:56:42;5.90;95.40
57753;DHT22;43583;53.132;6.574;2023-03-14T15:59:08;6.00;96.20
57753;DHT22;43583;53.132;6.574;2023-03-14T16:01:33;6.00;96.40
57753;DHT22;43583;53.132;6.574;2023-03-14T16:03:59;6.00;96.50
57753;DHT22;43583;53.132;6.574;2023-03-14T16:06:24;5.90;96.80
57753;DHT22;43583;53.132;6.574;2023-03-14T16:08:50;5.90;96.90
57753;DHT22;43583;53.132;6.574;2023-03-14T16:11:16;5.80;97.40
57753;DHT22;43583;53.132;6.574;2023-03-14T16:13:43;5.70;97.40
57753;DHT22;43583;53.132;6.574;2023-03-14T16:16:09;5.60;97.50
57753;DHT22;43583;53.132;6.574;2023-03-14T16:18:36;5.60;97.40
57753;DHT22;43583;53.132;6.574;2023-03-14T16:21:11;5.60;96.30
57753;DHT22;43583;53.132;6.574;2023-03-14T16:23:37;5.70;96.20
57753;DHT22;43583;53.132;6.574;2023-03-14T16:26:07;5.60;96.20
57753;DHT22;43583;53.132;6.574;2023-03-14T16:28:33;5.70;97.00
57753;DHT22;43583;53.132;6.574;2023-03-14T16:31:03;5.70;97.70
57753;DHT22;43583;53.132;6.574;2023-03-14T16:33:30;5.60;98.40
57753;DHT22;43583;53.132;6.574;2023-03-14T16:35:57;5.60;98.80
57753;DHT22;43583;53.132;6.574;2023-03-14T16:38:23;5.50;99.20
57753;DHT22;43583;53.132;6.574;2023-03-14T16:40:59;5.60;99.90